Time;durP1;ratioP1;P1;durP2;ratioP2;P2;SDS_P1;SDS_P2;PMS_P1;PMS_P2;Temp;Humidity;BMP_temperature;BMP_pressure;BME280_temperature;BME280_humidity;BME280_pressure;Samples;Min_cycle;Max_cycle;Signal;HPM_P1;HPM_P2
2024/01/12 00:00:23;;;;;;;69.40;27.88;;;;;;;-144.05;81.64;57029.38;5010941;28;20549;-77
2024/01/12 00:05:13;;;;;;;64.82;26.90;;;;;;;-144.05;81.67;57023.00;5098666;27;1241999;-79
2024/01/12 00:07:39;;;;;;;60.83;25.15;;;;;;;-144.05;81.96;57031.50;5111325;28;20280;-80
2024/01/12 00:10:08;;;;;;;67.85;25.45;;;;;;;-144.05;81.85;57040.00;5113862;28;20412;-82
2024/01/12 00:12:34;;;;;;;72.85;29.10;;;;;;;-144.05;81.64;57020.88;5118717;28;20479;-80
2024/01/12 00:15:02;;;;;;;72.32;27.80;;;;;;;-144.05;81.38;57061.22;5110658;28;20016;-78
2024/01/12 00:17:29;;;;;;;69.55;29.10;;;;;;;-144.05;81.15;57003.88;5117561;28;20458;-78
2024/01/12 00:19:55;;;;;;;69.65;29.52;;;;;;;-144.05;81.53;57035.75;5109718;28;20042;-79
2024/01/12 00:22:21;;;;;;;67.65;28.25;;;;;;;-144.05;81.57;57042.13;5122417;28;20047;-77
2024/01/12 00:24:48;;;;;;;73.03;27.08;;;;;;;-144.05;81.71;57016.63;5135494;27;20016;-81
2024/01/12 00:27:15;;;;;;;75.00;28.60;;;;;;;-144.05;81.56;57014.50;5130001;28;20144;-81
2024/01/12 00:29:41;;;;;;;69.45;28.75;;;;;;;-144.05;81.92;57052.75;5138029;28;20016;-79
2024/01/12 00:32:08;;;;;;;74.40;28.42;;;;;;;-144.05;81.44;57016.63;5129230;28;20059;-82
2024/01/12 00:34:34;;;;;;;77.45;30.48;;;;;;;-144.05;81.79;57061.22;5114546;28;20024;-81
2024/01/12 00:37:00;;;;;;;65.07;26.67;;;;;;;-144.05;81.66;57054.88;5108357;28;20028;-81
2024/01/12 00:39:27;;;;;;;70.10;27.42;;;;;;;-144.05;82.01;57050.63;5108249;28;20104;-78
2024/01/12 00:41:54;;;;;;;75.22;27.15;;;;;;;-144.05;82.18;57040.00;5108098;28;20049;-79
2024/01/12 00:44:21;;;;;;;71.15;27.45;;;;;;;-144.05;82.29;57010.25;5115349;28;20024;-79
2024/01/12 00:46:50;;;;;;;71.88;28.75;;;;;;;-144.05;82.11;57006.00;5106680;28;20509;-79
2024/01/12 00:49:18;;;;;;;69.53;27.42;;;;;;;-144.05;81.97;57023.00;5115283;28;20031;-79
2024/01/12 00:51:46;;;;;;;68.00;27.13;;;;;;;-144.05;81.96;57006.00;5107807;28;20032;-80
2024/01/12 00:54:12;;;;;;;74.38;29.42;;;;;;;-144.05;82.12;57042.13;5108000;28;20028;-80
2024/01/12 00:56:39;;;;;;;64.38;27.23;;;;;;;-144.05;82.20;57020.88;5115589;28;20057;-78
2024/01/12 00:59:06;;;;;;;71.47;27.42;;;;;;;-144.05;82.45;57018.75;5121544;28;20114;-78
2024/01/12 01:01:33;;;;;;;62.03;25.73;;;;;;;-144.05;82.37;57018.75;5118540;27;20047;-78
2024/01/12 01:04:01;;;;;;;82.38;29.17;;;-2.20;99.90;;;-144.05;82.41;57029.38;5107179;28;20634;-80
2024/01/12 01:06:28;;;;;;;83.00;30.08;;;;;;;-144.05;82.50;56993.25;5108214;28;20034;-79
2024/01/12 01:08:54;;;;;;;80.93;31.42;;;;;;;-144.05;82.09;57016.63;5107498;28;20063;-80
2024/01/12 01:11:21;;;;;;;68.40;27.13;;;;;;;-144.05;82.27;57042.13;5107634;28;20023;-78
2024/01/12 01:13:47;;;;;;;77.20;27.48;;;;;;;-144.05;82.03;57023.00;5107938;28;20473;-80
2024/01/12 01:16:13;;;;;;;73.53;28.52;;;;;;;-144.05;82.34;57046.38;5094669;28;20036;-80
2024/01/12 01:18:39;;;;;;;71.97;29.05;;;;;;;-144.05;82.48;57046.38;5104577;28;20039;-79
2024/01/12 01:21:05;;;;;;;77.03;27.70;;;;;;;-144.05;82.14;57018.75;5093942;28;20050;-80
2024/01/12 01:23:32;;;;;;;78.07;29.90;;;;;;;-144.05;81.94;57001.75;5094886;28;20553;-80
2024/01/12 01:25:59;;;;;;;72.95;29.25;;;;;;;-144.05;82.13;57031.50;5109434;28;20035;-81
2024/01/12 01:28:25;;;;;;;78.20;29.13;;;;;;;-144.05;82.13;57048.50;5096100;28;20050;-79
2024/01/12 01:30:51;;;;;;;77.13;31.30;;;;;;;-144.05;82.07;57050.63;5093897;28;20032;-78
2024/01/12 01:33:17;;;;;;;68.47;27.98;;;;;;;-144.05;82.17;57012.38;5094407;28;20472;-80
2024/01/12 01:35:44;;;;;;;82.40;31.80;;;;;;;-144.05;82.47;57027.25;5101363;28;20035;-80
2024/01/12 01:38:10;;;;;;;76.13;30.23;;;;;;;-144.05;82.14;57027.25;5093659;28;20493;-80
2024/01/12 01:40:36;;;;;;;102.63;33.85;;;;;;;-144.05;82.66;57052.75;5100307;28;20032;-79
2024/01/12 01:43:09;;;;;;;75.05;30.67;;;;;;;-144.05;82.50;57044.25;5093200;28;20032;-80
2024/01/12 01:45:36;;;;;;;85.18;29.92;;;;;;;-144.05;81.94;57018.75;5092356;28;20046;-80
2024/01/12 01:48:07;;;;;;;79.05;30.80;;;;;;;-144.05;81.72;57031.50;5094016;28;20047;-78
2024/01/12 01:50:36;;;;;;;84.53;33.95;;;;;;;-144.05;81.50;57003.88;5092675;28;20047;-80
2024/01/12 01:53:04;;;;;;;86.00;31.42;;;-3.50;99.90;;;-144.05;82.24;57031.50;5093636;28;20083;-80
2024/01/12 01:55:32;;;;;;;79.85;28.75;;;1.60;99.90;;;-144.05;82.06;57040.00;5093349;28;20032;-80
2024/01/12 01:58:02;;;;;;;83.20;32.30;;;;;;;-144.05;82.49;57018.75;5093800;28;20084;-78
2024/01/12 02:00:31;;;;;;;88.18;31.25;;;;;;;-144.05;82.67;57042.13;5093777;28;20123;-80
2024/01/12 02:02:59;;;;;;;83.18;30.42;;;;;;;-144.05;82.86;57048.50;5091813;28;20080;-80
2024/01/12 02:05:28;;;;;;;78.95;28.90;;;1.70;99.90;;;-144.05;82.46;57035.75;5100408;28;20040;-78
2024/01/12 02:07:55;;;;;;;82.07;29.90;;;;;;;-144.05;82.58;57046.38;5098130;28;20028;-80
2024/01/12 02:10:22;;;;;;;99.50;33.60;;;;;;;-144.05;82.73;57042.13;5097092;28;20085;-76
2024/01/12 02:12:48;;;;;;;85.55;33.63;;;;;;;-144.05;82.29;57031.50;5101447;28;20047;-80
2024/01/12 02:15:15;;;;;;;89.97;32.38;;;;;;;-144.05;82.34;57014.50;5092364;28;20437;-79
2024/01/12 02:17:43;;;;;;;82.47;31.33;;;1.80;99.90;;;-144.05;82.49;57020.88;5093435;28;20035;-81
2024/01/12 02:20:09;;;;;;;85.43;31.73;;;;;;;-144.05;82.16;57010.25;5106991;28;20417;-81
2024/01/12 02:22:42;;;;;;;87.18;32.70;;;;;;;-144.05;82.27;57040.00;5094196;28;20105;-80
2024/01/12 02:25:09;;;;;;;85.72;32.80;;;;;;;-144.05;82.60;57031.50;5093049;28;20028;-80
2024/01/12 02:27:35;;;;;;;83.65;30.95;;;;;;;-144.05;82.42;57035.75;5090570;28;20066;-79
2024/01/12 02:30:02;;;;;;;92.25;32.78;;;;;;;-144.05;82.53;57067.59;5093349;28;20052;-81
2024/01/12 02:32:29;;;;;;;90.65;33.97;;;;;;;-144.05;82.54;57040.00;5108524;28;20046;-80
2024/01/12 02:34:55;;;;;;;75.38;30.60;;;;;;;-144.05;82.40;57029.38;5091124;28;20074;-80
2024/01/12 02:37:21;;;;;;;88.72;32.22;;;;;;;-144.05;82.74;57040.00;5092636;28;20097;-81
2024/01/12 02:39:47;;;;;;;74.68;30.00;;;;;;;-144.05;82.44;57031.50;5090756;28;20202;-80
2024/01/12 02:42:13;;;;;;;90.90;31.65;;;;;;;-144.05;82.54;57025.13;5092189;28;20028;-81
2024/01/12 02:44:40;;;;;;;86.07;32.55;;;;;;;-144.05;82.00;57040.00;5092063;28;20110;-79
2024/01/12 02:47:07;;;;;;;82.22;30.85;;;;;;;-144.05;81.96;57046.38;5092733;28;20036;-80
2024/01/12 02:49:34;;;;;;;88.13;33.50;;;;;;;-144.05;81.91;57042.13;5091925;28;20032;-79
2024/01/12 02:52:01;;;;;;;88.78;32.40;;;;;;;-144.05;82.12;57023.00;5092313;28;20504;-81
2024/01/12 02:54:27;;;;;;;77.18;29.63;;;;;;;-144.05;81.79;57006.00;5092450;28;20108;-80
2024/01/12 02:56:53;;;;;;;86.38;31.10;;;;;;;-144.05;82.07;57016.63;5094414;28;20567;-83
2024/01/12 02:59:19;;;;;;;78.07;29.55;;;;;;;-144.05;82.37;57040.00;5093162;28;20119;-79
2024/01/12 03:01:46;;;;;;;89.55;30.77;;;;;;;-144.05;82.29;57054.88;5094190;28;20027;-79
2024/01/12 03:04:12;;;;;;;80.25;31.48;;;;;;;-144.05;82.08;57040.00;5098020;28;20028;-81
2024/01/12 03:06:38;;;;;;;93.38;30.90;;;;;;;-144.05;82.39;57054.88;5092830;28;20488;-79
2024/01/12 03:09:04;;;;;;;82.82;33.10;;;;;;;-144.05;82.22;57027.25;5092371;28;20092;-80
2024/01/12 03:11:31;;;;;;;85.45;34.00;;;;;;;-144.05;82.69;57016.63;5092108;28;20498;-80
2024/01/12 03:13:57;;;;;;;84.05;31.52;;;;;;;-144.05;82.18;57054.88;5090760;28;20016;-80
2024/01/12 03:16:23;;;;;;;87.97;31.75;;;;;;;-144.05;82.49;57046.38;5091821;28;20070;-76
2024/01/12 03:18:50;;;;;;;75.88;30.08;;;;;;;-144.05;82.36;57025.13;5091994;28;20587;-81
2024/01/12 03:21:17;;;;;;;76.63;29.52;;;;;;;-144.05;82.54;57048.50;5092493;28;20028;-81
2024/01/12 03:23:43;;;;;;;77.93;29.73;;;;;;;-144.05;82.69;57006.00;5091590;28;20040;-81
2024/01/12 03:26:09;;;;;;;79.82;30.52;;;;;;;-144.05;82.77;57027.25;5095978;28;20111;-80
2024/01/12 03:28:36;;;;;;;76.43;30.20;;;;;;;-144.05;82.59;57008.13;5100239;28;20104;-80
2024/01/12 03:31:03;;;;;;;81.40;32.22;;;;;;;-144.05;82.90;57054.88;5092211;28;20485;-80
2024/01/12 03:33:30;;;;;;;81.65;30.15;;;;;;;-144.05;82.91;57029.38;5091730;28;20103;-80
2024/01/12 03:35:57;;;;;;;82.40;29.95;;;;;;;-144.05;83.22;57063.34;5090637;28;20417;-81
2024/01/12 03:38:24;;;;;;;92.43;31.42;;;;;;;-144.05;82.70;57025.13;5108317;28;20504;-77
2024/01/12 03:40:50;;;;;;;89.03;31.67;;;;;;;-144.05;82.51;57027.25;5109985;28;20020;-81
2024/01/12 03:43:16;;;;;;;93.00;32.63;;;;;;;-144.05;82.46;57044.25;5110570;28;20028;-80
2024/01/12 03:45:42;;;;;;;81.63;32.35;;;;;;;-144.05;82.78;57001.75;5094776;27;20059;-81
2024/01/12 03:48:08;;;;;;;82.50;30.35;;;;;;;-144.05;82.87;57018.75;5094365;28;20096;-76
2024/01/12 03:50:34;;;;;;;89.95;30.35;;;;;;;-144.05;82.42;57016.63;5092191;28;20024;-79
2024/01/12 03:53:01;;;;;;;86.22;31.13;;;;;;;-144.05;82.88;57023.00;5091775;28;20139;-79
2024/01/12 03:55:27;;;;;;;90.43;30.80;;;;;;;-144.05;82.59;57042.13;5092205;28;20028;-79
2024/01/12 03:57:54;;;;;;;85.03;30.98;;;;;;;-144.05;82.47;57046.38;5092287;28;20400;-80
2024/01/12 04:00:20;;;;;;;90.07;31.13;;;;;;;-144.05;82.22;57050.63;5104830;28;20086;-80
2024/01/12 04:02:47;;;;;;;97.47;34.92;;;;;;;-144.05;82.22;57016.63;5097491;28;20531;-80
2024/01/12 04:05:13;;;;;;;76.88;28.90;;;;;;;-144.05;82.57;57014.50;5091457;28;20032;-79
2024/01/12 04:07:39;;;;;;;75.18;30.45;;;;;;;-144.05;82.94;57035.75;5092059;28;20031;-79
2024/01/12 04:10:06;;;;;;;78.82;29.77;;;;;;;-144.05;82.93;57010.25;5101154;28;20036;-78
2024/01/12 04:12:32;;;;;;;90.28;31.15;;;;;;;-144.05;83.29;56982.66;5098997;28;20393;-81
2024/01/12 04:14:58;;;;;;;84.97;30.42;;;;;;;-144.05;82.79;57029.38;5091739;28;20520;-79
2024/01/12 04:17:25;;;;;;;81.32;29.88;;;;;;;-144.05;82.94;57018.75;5091391;28;20028;-80
2024/01/12 04:19:51;;;;;;;85.15;30.30;;;;;;;-144.05;82.94;57033.63;5090837;28;20024;-80
2024/01/12 04:22:17;;;;;;;84.72;30.67;;;;;;;-144.05;82.97;57027.25;5094469;28;20085;-81
2024/01/12 04:24:43;;;;;;;82.43;28.55;;;;;;;-144.05;82.84;57052.75;5092545;28;20437;-78
2024/01/12 04:27:09;;;;;;;82.60;29.30;;;;;;;-144.05;82.66;57063.34;5095362;28;20111;-78
2024/01/12 04:29:36;;;;;;;88.15;29.45;;;;;;;-144.05;82.94;57031.50;5091793;28;20203;-80
2024/01/12 04:32:02;;;;;;;79.43;29.13;;;;;;;-144.05;82.93;57023.00;5090020;28;20035;-78
2024/01/12 04:34:28;;;;;;;83.32;31.10;;;;;;;-144.05;83.17;57012.38;5090425;28;20020;-77
2024/01/12 04:36:55;;;;;;;72.65;27.63;;;;;;;-144.05;83.01;57033.63;5091164;28;20457;-79
2024/01/12 04:39:22;;;;;;;90.90;28.45;;;;;;;-144.05;82.60;57006.00;5093428;28;20545;-79
2024/01/12 04:41:48;;;;;;;82.28;30.63;;;;;;;-144.05;83.00;57040.00;5096836;28;20032;-79
2024/01/12 04:44:14;;;;;;;79.35;26.75;;;;;;;-144.05;82.87;57027.25;5097672;28;20085;-79
2024/01/12 04:46:42;;;;;;;76.25;28.02;;;;;;;-144.05;83.39;57027.25;5101490;28;20039;-79
2024/01/12 04:49:09;;;;;;;81.75;28.77;;;;;;;-144.05;83.09;57035.75;5108784;28;20039;-81
2024/01/12 04:51:35;;;;;;;76.57;28.40;;;;;;;-144.05;83.03;57023.00;5095457;28;20028;-79
2024/01/12 04:54:02;;;;;;;76.78;28.90;;;;;;;-144.05;83.41;57029.38;5094233;28;20016;-80
2024/01/12 04:56:28;;;;;;;91.00;27.83;;;;;;;-144.05;83.13;57003.88;5102717;28;20394;-80
2024/01/12 04:58:54;;;;;;;71.95;27.70;;;;;;;-144.05;82.88;57003.88;5106298;28;20027;-81
2024/01/12 05:01:21;;;;;;;87.32;28.30;;;;;;;-144.05;82.96;57001.75;5099565;28;20082;-80
2024/01/12 05:03:47;;;;;;;75.20;28.10;;;;;;;-144.05;83.11;57023.00;5105328;28;20032;-80
2024/01/12 05:06:13;;;;;;;71.60;24.33;;;;;;;-144.05;83.16;57027.25;5100342;28;20118;-80
2024/01/12 05:08:39;;;;;;;40.08;15.80;;;;;;;-144.05;83.27;57025.13;5106513;28;20060;-78
2024/01/12 05:11:06;;;;;;;49.90;18.38;;;;;;;-144.05;83.23;57048.50;5127812;28;20091;-83
2024/01/12 05:13:32;;;;;;;59.20;21.02;;;;;;;-144.05;83.02;57040.00;5125444;28;20055;-81
2024/01/12 05:15:58;;;;;;;58.60;21.73;;;;;;;-144.05;82.96;57025.13;5117812;28;20035;-79
2024/01/12 05:18:24;;;;;;;60.05;21.38;;;;;;;-144.05;83.20;57008.13;5110155;28;20024;-80
2024/01/12 05:20:51;;;;;;;52.95;20.58;;;;;;;-144.05;82.92;57027.25;5117501;28;20488;-78
2024/01/12 05:23:17;;;;;;;68.65;22.02;;;;;;;-144.05;83.44;57052.75;5104607;28;20077;-79
2024/01/12 05:25:44;;;;;;;62.78;20.65;;;;;;;-144.05;83.43;57048.50;5106268;28;20035;-79
2024/01/12 05:28:10;;;;;;;58.33;19.70;;;;;;;-144.05;83.13;57042.13;5112024;28;20119;-79
2024/01/12 05:30:36;;;;;;;62.33;21.80;;;;;;;-144.05;83.21;57052.75;5105968;28;20109;-80
2024/01/12 05:33:02;;;;;;;59.22;20.30;;;;;;;-144.05;83.15;57016.63;5097661;28;20412;-79
2024/01/12 05:35:29;;;;;;;53.75;20.42;;;;;;;-144.05;83.23;57025.13;5098461;28;20043;-80
2024/01/12 05:37:55;;;;;;;61.17;22.00;;;;;;;-144.05;83.20;57061.22;5098619;28;20101;-78
2024/01/12 05:40:21;;;;;;;60.70;20.33;;;;;;;-144.05;83.41;57027.25;5098526;28;20032;-78
2024/01/12 05:42:48;;;;;;;69.72;21.80;;;;;;;-144.05;83.22;57025.13;5113891;28;20051;-80
2024/01/12 05:45:14;;;;;;;61.30;21.50;;;;;;;-144.05;82.84;57016.63;5104382;28;20050;-80
2024/01/12 05:47:40;;;;;;;64.57;21.17;;;;;;;-144.05;83.41;57073.97;5101575;28;20083;-78
2024/01/12 05:50:07;;;;;;;61.47;21.25;;;;;;;-144.05;83.19;57044.25;5099942;28;20043;-79
2024/01/12 05:52:35;;;;;;;60.53;21.13;;;;;;;-144.05;83.63;57027.25;5105146;28;20036;-79
2024/01/12 05:55:02;;;;;;;67.28;22.67;;;;;;;-144.05;83.52;57023.00;5105258;28;20020;-79
2024/01/12 05:57:30;;;;;;;48.92;18.70;;;;;;;-144.05;83.71;57048.50;5112288;28;20130;-78
2024/01/12 05:59:57;;;;;;;59.22;22.30;;;;;;;-144.05;83.88;57014.50;5100829;28;20489;-80
2024/01/12 06:02:23;;;;;;;61.40;22.23;;;;;;;-144.05;83.38;57031.50;5100765;28;20055;-79
2024/01/12 06:04:49;;;;;;;57.15;19.65;;;;;;;-144.05;83.74;57033.63;5098858;28;20036;-78
2024/01/12 06:07:15;;;;;;;54.47;18.67;;;;;;;-144.05;83.61;57016.63;5095727;28;20485;-80
2024/01/12 06:09:42;;;;;;;53.28;17.77;;;;;;;-144.05;83.56;57048.50;5097683;28;20078;-80
2024/01/12 06:12:09;;;;;;;53.58;19.02;;;-1.90;99.90;;;-144.05;83.84;57063.34;5099883;28;20035;-79
2024/01/12 06:14:36;;;;;;;48.30;17.42;;;1.30;99.90;;;-144.05;83.71;57031.50;5099829;28;20099;-78
2024/01/12 06:17:02;;;;;;;52.67;19.23;;;;;;;-144.05;83.40;57023.00;5103377;28;20024;-80
2024/01/12 06:19:28;;;;;;;56.75;19.95;;;;;;;-144.05;84.02;57020.88;5102014;28;20032;-78
2024/01/12 06:21:54;;;;;;;53.58;18.42;;;;;;;-144.05;83.84;57027.25;5110999;28;20036;-80
2024/01/12 06:24:21;;;;;;;49.78;18.63;;;;;;;-144.05;83.75;57012.38;5102772;28;20032;-80
2024/01/12 06:26:47;;;;;;;55.42;18.98;;;;;;;-144.05;83.71;57048.50;5098561;28;20059;-80
2024/01/12 06:29:14;;;;;;;52.00;19.27;;;;;;;-144.05;83.88;57035.75;5099297;28;20039;-81
2024/01/12 06:31:40;;;;;;;48.22;17.92;;;;;;;-144.05;83.39;57006.00;5098699;28;20032;-80
2024/01/12 06:34:06;;;;;;;42.72;15.80;;;;;;;-144.05;83.52;56984.78;5118788;28;20060;-82
2024/01/12 06:36:34;;;;;;;46.28;16.33;;;;;;;-144.05;83.74;57008.13;5108043;28;20500;-81
2024/01/12 06:39:00;;;;;;;44.90;15.48;;;;;;;-144.05;83.66;57014.50;5098119;28;20040;-81
2024/01/12 06:41:26;;;;;;;43.20;15.00;;;;;;;-144.05;83.76;57040.00;5115307;28;20034;-82
2024/01/12 06:43:53;;;;;;;44.28;17.25;;;;;;;-144.05;83.19;57018.75;5113347;28;20462;-81
2024/01/12 06:46:19;;;;;;;46.95;21.73;;;;;;;-144.05;83.30;57008.13;5120452;28;20403;-81
2024/01/12 06:48:45;;;;;;;50.55;26.15;;;;;;;-144.05;83.13;57003.88;5119536;28;20028;-80
2024/01/12 06:51:11;;;;;;;33.35;15.93;;;;;;;-144.05;83.19;57012.38;5115231;28;20043;-79
2024/01/12 06:53:38;;;;;;;35.45;14.35;;;;;;;-144.05;83.06;57027.25;5100940;28;20028;-80
2024/01/12 06:56:06;;;;;;;21.70;10.55;;;;;;;-144.05;82.76;57059.09;5111236;28;20132;-79
2024/01/12 06:58:32;;;;;;;20.25;8.32;;;;;;;-144.05;82.77;57052.75;5100450;28;20042;-79
2024/01/12 07:00:59;;;;;;;16.40;7.45;;;;;;;-144.05;82.51;57031.50;5113007;28;20024;-80
2024/01/12 07:03:25;;;;;;;15.60;8.40;;;;;;;-144.05;82.57;57014.50;5101264;28;20028;-78
2024/01/12 07:05:52;;;;;;;16.23;8.23;;;1.30;99.90;;;-144.05;82.60;57042.13;5104996;28;20027;-81
2024/01/12 07:08:18;;;;;;;18.42;7.97;;;;;;;-144.05;82.48;57031.50;5097954;28;20535;-82
2024/01/12 07:10:45;;;;;;;18.42;8.45;;;;;;;-144.05;82.82;57001.75;5100114;28;20488;-81
2024/01/12 07:13:11;;;;;;;22.00;8.38;;;;;;;-144.05;82.87;57046.38;5098281;28;20481;-81
2024/01/12 07:15:38;;;;;;;22.20;9.50;;;;;;;-144.05;82.51;57035.75;5096062;28;20028;-81
2024/01/12 07:18:04;;;;;;;24.10;10.18;;;;;;;-144.05;82.85;57035.75;5102194;28;20031;-80
2024/01/12 07:20:31;;;;;;;27.67;11.75;;;;;;;-144.05;82.22;57025.13;5112940;28;20114;-81
2024/01/12 07:22:57;;;;;;;24.58;11.05;;;;;;;-144.05;82.26;57027.25;5095201;28;20085;-79
2024/01/12 07:25:25;;;;;;;21.77;9.18;;;1.90;99.90;;;-144.05;82.60;57010.25;5095998;28;20032;-82
2024/01/12 07:27:51;;;;;;;23.00;9.88;;;;;;;-144.05;82.45;57014.50;5101975;28;20034;-81
2024/01/12 07:30:17;;;;;;;19.92;8.10;;;;;;;-144.05;81.99;57025.13;5096442;28;20036;-81
2024/01/12 07:32:44;;;;;;;19.42;8.70;;;;;;;-144.05;81.99;57010.25;5098321;28;20035;-81
2024/01/12 07:35:11;;;;;;;17.20;7.50;;;;;;;-144.05;82.43;57018.75;5095476;28;20068;-81
2024/01/12 07:37:38;;;;;;;17.05;7.55;;;;;;;-144.05;81.96;57001.75;5095180;28;20081;-79
2024/01/12 07:40:05;;;;;;;16.50;7.43;;;;;;;-144.05;82.12;57044.25;5096902;28;20526;-80
2024/01/12 07:42:31;;;;;;;12.75;6.78;;;;;;;-144.05;82.41;57016.63;5097415;28;20064;-80
2024/01/12 07:44:57;;;;;;;24.02;11.15;;;;;;;-144.05;82.22;57014.50;5094404;28;20479;-79
2024/01/12 07:47:23;;;;;;;29.85;13.23;;;;;;;-144.05;82.42;56999.63;5095607;28;20031;-79
2024/01/12 07:49:49;;;;;;;21.33;10.65;;;;;;;-144.05;82.54;57014.50;5107732;28;20113;-81
2024/01/12 07:52:16;;;;;;;22.90;9.27;;;;;;;-144.05;82.47;57040.00;5101511;28;20050;-79
2024/01/12 07:54:42;;;;;;;20.17;9.23;;;;;;;-144.05;82.30;57059.09;5099399;28;20390;-78
2024/01/12 07:57:08;;;;;;;21.40;10.80;;;;;;;-144.05;81.91;57012.38;5111765;28;20031;-80
2024/01/12 07:59:35;;;;;;;18.80;8.90;;;;;;;-144.05;82.31;57006.00;5099385;28;20055;-79
2024/01/12 08:02:01;;;;;;;19.73;9.15;;;;;;;-144.05;81.56;57018.75;5101673;28;20023;-80
2024/01/12 08:04:27;;;;;;;16.92;8.10;;;;;;;-144.05;81.43;57025.13;5101865;28;20439;-80
2024/01/12 08:06:53;;;;;;;21.05;8.75;;;;;;;-144.05;81.31;57048.50;5100373;28;20123;-81
2024/01/12 08:09:20;;;;;;;22.02;9.52;;;;;;;-144.05;80.95;57029.38;5096391;28;20036;-79
2024/01/12 08:11:46;;;;;;;21.75;9.55;;;;;;;-144.05;81.27;57029.38;5111498;28;20024;-83
2024/01/12 08:14:12;;;;;;;49.20;19.48;;;;;;;-144.05;81.05;57059.09;5102125;28;20052;-81
2024/01/12 08:16:38;;;;;;;35.47;15.65;;;;;;;-144.05;80.95;57001.75;5098793;28;20028;-80
2024/01/12 08:19:05;;;;;;;29.55;13.63;;;;;;;-144.05;81.02;57016.63;5100994;28;20172;-82
2024/01/12 08:21:32;;;;;;;29.35;13.43;;;;;;;-144.05;81.03;57048.50;5105999;28;20051;-82
2024/01/12 08:23:58;;;;;;;29.42;14.95;;;;;;;-144.05;81.29;57040.00;5100680;28;20032;-81
2024/01/12 08:26:24;;;;;;;22.92;12.57;;;;;;;-144.05;81.29;57044.25;5102266;28;20473;-80
2024/01/12 08:28:54;;;;;;;22.17;10.38;;;;;;;-144.05;81.42;57006.00;5114593;28;20408;-80
2024/01/12 08:31:22;;;;;;;22.25;10.77;;;;;;;-144.05;81.60;57040.00;5099937;28;20548;-81
2024/01/12 08:33:49;;;;;;;19.73;10.57;;;;;;;-144.05;81.20;56997.50;5101149;28;20122;-78
2024/01/12 08:36:16;;;;;;;23.38;10.30;;;;;;;-144.05;81.27;57012.38;5099721;28;20126;-81
2024/01/12 08:38:42;;;;;;;17.55;8.85;;;;;;;-144.05;81.59;57048.50;5101324;28;20067;-78
2024/01/12 08:41:08;;;;;;;19.98;8.95;;;;;;;-144.05;81.58;57061.22;5115062;28;20030;-81
2024/01/12 08:43:35;;;;;;;19.40;8.73;;;;;;;-144.05;81.13;57044.25;5104295;28;20115;-80
2024/01/12 08:46:01;;;;;;;17.90;8.27;;;;;;;-144.05;81.57;57042.13;5103928;28;20032;-80
2024/01/12 08:48:28;;;;;;;21.05;9.40;;;;;;;-144.05;81.50;56986.91;5098644;28;20083;-81
2024/01/12 08:50:54;;;;;;;21.73;9.10;;;;;;;-144.05;81.71;57050.63;5105699;28;20431;-78
2024/01/12 08:53:20;;;;;;;23.88;9.88;;;;;;;-144.05;81.94;57023.00;5103487;28;20550;-79
2024/01/12 08:55:47;;;;;;;29.40;13.55;;;;;;;-144.05;82.07;57059.09;5104603;28;20028;-81
2024/01/12 08:58:13;;;;;;;44.28;22.70;;;;;;;-144.05;82.04;57003.88;5118407;28;20027;-79
2024/01/12 09:00:39;;;;;;;54.30;27.73;;;;;;;-144.05;81.94;57029.38;5100925;28;20405;-80
2024/01/12 09:03:06;;;;;;;34.15;17.40;;;;;;;-144.05;81.84;57040.00;5107201;28;20028;-82
2024/01/12 09:05:32;;;;;;;26.45;12.77;;;;;;;-144.05;81.96;57042.13;5099713;28;20082;-82
2024/01/12 09:07:59;;;;;;;26.92;11.85;;;;;;;-144.05;82.11;57044.25;5104863;28;20024;-79
2024/01/12 09:10:25;;;;;;;24.25;12.35;;;;;;;-144.05;82.26;57029.38;5100295;28;20035;-80
2024/01/12 09:12:52;;;;;;;22.27;10.48;;;;;;;-144.05;81.95;57033.63;5101920;28;20073;-80
2024/01/12 09:15:18;;;;;;;30.77;11.15;;;;;;;-144.05;81.63;57050.63;5105457;28;20028;-80
2024/01/12 09:17:44;;;;;;;27.73;11.10;;;;;;;-144.05;81.94;56999.63;5110779;28;20043;-80
2024/01/12 09:20:11;;;;;;;25.85;10.98;;;;;;;-144.05;82.18;57044.25;5101566;28;20032;-82
2024/01/12 09:22:37;;;;;;;31.38;12.50;;;;;;;-144.05;81.99;57035.75;5099514;28;20085;-80
2024/01/12 09:25:04;;;;;;;28.33;13.65;;;;;;;-144.05;82.22;57016.63;5107841;28;20043;-81
2024/01/12 09:27:30;;;;;;;29.08;11.90;;;;;;;-144.05;82.44;57054.88;5111238;28;20062;-85
2024/01/12 09:29:56;;;;;;;31.52;11.45;;;;;;;-144.05;82.24;57052.75;5114096;28;20075;-84
2024/01/12 09:32:22;;;;;;;31.60;12.82;;;;;;;-144.05;81.94;57059.09;5103992;28;20032;-81
2024/01/12 09:34:49;;;;;;;26.27;12.43;;;;;;;-144.05;81.77;57012.38;5109029;28;20035;-83
2024/01/12 09:37:15;;;;;;;29.20;13.45;;;;;;;-144.05;81.89;56997.50;5108786;28;20028;-79
2024/01/12 09:39:41;;;;;;;31.98;13.50;;;;;;;-144.05;81.72;56999.63;5113921;28;20032;-82
2024/01/12 09:42:10;;;;;;;39.08;13.60;;;;;;;-144.05;82.06;57012.38;5112481;28;20047;-83
2024/01/12 09:44:38;;;;;;;40.33;14.07;;;1.30;99.90;;;-144.05;81.82;57042.13;5101351;28;20374;-81
2024/01/12 09:47:05;;;;;;;34.65;14.25;;;;;;;-144.05;81.67;57027.25;5100203;28;20042;-80
2024/01/12 09:49:31;;;;;;;37.55;14.38;;;;;;;-144.05;82.22;57027.25;5098938;28;20080;-81
2024/01/12 09:52:03;;;;;;;39.97;16.63;;;1.80;99.90;;;-144.05;82.13;57014.50;5101379;28;20036;-82
2024/01/12 09:54:30;;;;;;;42.42;14.93;;;;;;;-144.05;82.20;57050.63;5097746;28;20037;-82
2024/01/12 09:56:56;;;;;;;40.08;15.73;;;;;;;-144.05;81.73;57033.63;5108808;28;20024;-80
2024/01/12 09:59:24;;;;;;;50.75;17.33;;;;;;;-144.05;81.89;57016.63;5100454;28;20028;-79
2024/01/12 10:01:51;;;;;;;43.60;17.23;;;;;;;-144.05;81.96;56999.63;5099239;28;20031;-80
2024/01/12 10:04:17;;;;;;;47.15;17.10;;;;;;;-144.05;81.67;57023.00;5102908;28;20040;-83
2024/01/12 10:06:44;;;;;;;53.38;19.50;;;;;;;-144.05;81.81;57018.75;5097368;28;20055;-78
2024/01/12 10:09:10;;;;;;;46.33;18.02;;;;;;;-144.05;81.97;57035.75;5095619;28;20028;-81
2024/01/12 10:11:37;;;;;;;43.45;16.85;;;;;;;-144.05;81.91;57012.38;5097706;28;20032;-81
2024/01/12 10:14:04;;;;;;;45.05;17.65;;;;;;;-144.05;81.96;57012.38;5095944;28;20647;-80
2024/01/12 10:16:30;;;;;;;45.97;18.63;;;;;;;-144.05;81.77;57027.25;5104764;28;20055;-80
2024/01/12 10:19:00;;;;;;;43.55;17.02;;;;;;;-144.05;81.95;56999.63;5099302;28;20040;-81
2024/01/12 10:21:27;;;;;;;49.65;18.13;;;;;;;-144.05;81.53;57020.88;5098432;28;20123;-80
2024/01/12 10:24:06;;;;;;;48.97;18.77;;;-1.70;99.90;;;-144.05;81.55;57014.50;5102680;28;20039;-82
2024/01/12 10:26:32;;;;;;;46.63;20.10;;;;;;;-144.05;81.82;57046.38;5098444;28;20112;-82
2024/01/12 10:29:05;;;;;;;45.35;17.25;;;;;;;-144.05;81.74;57031.50;5101009;28;20055;-80
2024/01/12 10:31:31;;;;;;;52.63;17.77;;;;;;;-144.05;81.94;57040.00;5098677;28;20032;-80
2024/01/12 10:33:59;;;;;;;47.25;18.42;;;;;;;-144.05;81.83;57016.63;5099488;28;20127;-82
2024/01/12 10:36:31;;;;;;;56.67;20.25;;;;;;;-144.05;82.35;57025.13;5110514;28;20031;-82
2024/01/12 10:39:00;;;;;;;47.25;17.52;;;;;;;-144.05;81.76;57001.75;5108950;28;20032;-82
2024/01/12 10:41:27;;;;;;;37.40;14.48;;;;;;;-144.05;81.42;57014.50;5097313;28;20039;-82
2024/01/12 10:43:59;;;;;;;41.20;17.67;;;;;;;-144.05;81.56;57001.75;5095348;28;20028;-82
2024/01/12 10:46:47;;;;;;;39.90;16.67;;;;;;;-144.05;81.74;57054.88;5101544;28;20407;-82
2024/01/12 10:49:25;;;;;;;45.95;16.42;;;;;;;-144.05;82.35;57029.38;5102420;28;20024;-80
2024/01/12 10:52:21;;;;;;;43.38;16.23;;;2.20;99.90;;;-144.05;81.46;57056.97;5099577;28;20123;-78
2024/01/12 10:55:10;;;;;;;40.43;16.00;;;-2.10;99.90;;;-144.05;81.66;57052.75;5097378;28;20445;-82
2024/01/12 10:57:37;;;;;;;40.28;16.02;;;;;;;-144.05;81.46;57012.38;5109326;28;20020;-82
2024/01/12 11:00:05;;;;;;;43.63;16.50;;;-1.70;99.90;;;-144.05;81.50;57048.50;5098537;28;20024;-82